sensor_id;sensor_type;location;lat;lon;timestamp;P1;durP1;ratioP1;P2;durP2;ratioP2
61344;SDS011;47216;42.656;23.232;2023-11-21T00:02:24;4.67;;;2.60;;
61344;SDS011;47216;42.656;23.232;2023-11-21T00:04:52;6.70;;;2.37;;
61344;SDS011;47216;42.656;23.232;2023-11-21T00:07:20;5.83;;;2.80;;
61344;SDS011;47216;42.656;23.232;2023-11-21T00:09:47;4.23;;;2.63;;
61344;SDS011;47216;42.656;23.232;2023-11-21T00:12:14;5.57;;;3.10;;
61344;SDS011;47216;42.656;23.232;2023-11-21T00:14:41;4.37;;;2.10;;
61344;SDS011;47216;42.656;23.232;2023-11-21T00:17:08;3.53;;;1.80;;
61344;SDS011;47216;42.656;23.232;2023-11-21T00:19:35;4.50;;;1.87;;
61344;SDS011;47216;42.656;23.232;2023-11-21T00:22:02;16.20;;;5.80;;
61344;SDS011;47216;42.656;23.232;2023-11-21T00:24:30;52.30;;;17.83;;
61344;SDS011;47216;42.656;23.232;2023-11-21T00:26:57;32.53;;;9.93;;
61344;SDS011;47216;42.656;23.232;2023-11-21T00:29:23;27.50;;;11.40;;
61344;SDS011;47216;42.656;23.232;2023-11-21T00:31:49;15.77;;;6.37;;
61344;SDS011;47216;42.656;23.232;2023-11-21T00:34:16;9.73;;;5.10;;
61344;SDS011;47216;42.656;23.232;2023-11-21T00:36:43;7.77;;;3.10;;
61344;SDS011;47216;42.656;23.232;2023-11-21T00:39:10;6.83;;;3.30;;
61344;SDS011;47216;42.656;23.232;2023-11-21T00:41:38;6.17;;;3.27;;
61344;SDS011;47216;42.656;23.232;2023-11-21T00:44:05;5.87;;;3.00;;
61344;SDS011;47216;42.656;23.232;2023-11-21T00:46:32;6.00;;;2.80;;
61344;SDS011;47216;42.656;23.232;2023-11-21T00:48:59;3.70;;;2.50;;
61344;SDS011;47216;42.656;23.232;2023-11-21T00:51:25;4.77;;;2.10;;
61344;SDS011;47216;42.656;23.232;2023-11-21T00:53:52;4.13;;;2.80;;
61344;SDS011;47216;42.656;23.232;2023-11-21T00:56:19;4.10;;;2.23;;
61344;SDS011;47216;42.656;23.232;2023-11-21T00:58:47;4.87;;;2.87;;
61344;SDS011;47216;42.656;23.232;2023-11-21T01:01:15;2.03;;;1.33;;
61344;SDS011;47216;42.656;23.232;2023-11-21T01:03:42;4.17;;;2.27;;
61344;SDS011;47216;42.656;23.232;2023-11-21T01:06:09;2.83;;;1.60;;
61344;SDS011;47216;42.656;23.232;2023-11-21T01:08:35;4.30;;;2.40;;
61344;SDS011;47216;42.656;23.232;2023-11-21T01:11:02;3.17;;;1.97;;
61344;SDS011;47216;42.656;23.232;2023-11-21T01:13:29;5.30;;;2.23;;
61344;SDS011;47216;42.656;23.232;2023-11-21T01:15:58;5.00;;;2.80;;
61344;SDS011;47216;42.656;23.232;2023-11-21T01:18:25;4.43;;;2.50;;
61344;SDS011;47216;42.656;23.232;2023-11-21T01:20:51;3.97;;;2.30;;
61344;SDS011;47216;42.656;23.232;2023-11-21T01:23:19;6.77;;;4.50;;
61344;SDS011;47216;42.656;23.232;2023-11-21T01:25:45;8.80;;;5.00;;
61344;SDS011;47216;42.656;23.232;2023-11-21T01:28:12;5.93;;;4.03;;
61344;SDS011;47216;42.656;23.232;2023-11-21T01:30:39;5.43;;;3.30;;
61344;SDS011;47216;42.656;23.232;2023-11-21T01:33:07;7.23;;;3.00;;
61344;SDS011;47216;42.656;23.232;2023-11-21T01:35:34;6.80;;;2.40;;
61344;SDS011;47216;42.656;23.232;2023-11-21T01:38:01;2.73;;;2.13;;
61344;SDS011;47216;42.656;23.232;2023-11-21T01:40:28;2.87;;;1.90;;
61344;SDS011;47216;42.656;23.232;2023-11-21T01:42:55;6.57;;;2.50;;
61344;SDS011;47216;42.656;23.232;2023-11-21T01:45:22;6.47;;;3.73;;
61344;SDS011;47216;42.656;23.232;2023-11-21T01:47:50;6.17;;;3.10;;
61344;SDS011;47216;42.656;23.232;2023-11-21T01:50:18;4.37;;;2.93;;
61344;SDS011;47216;42.656;23.232;2023-11-21T01:52:47;4.53;;;2.60;;
61344;SDS011;47216;42.656;23.232;2023-11-21T01:55:15;5.10;;;2.20;;
61344;SDS011;47216;42.656;23.232;2023-11-21T01:57:44;3.17;;;2.10;;
61344;SDS011;47216;42.656;23.232;2023-11-21T02:00:12;4.17;;;2.13;;
61344;SDS011;47216;42.656;23.232;2023-11-21T02:02:42;2.20;;;1.70;;
61344;SDS011;47216;42.656;23.232;2023-11-21T02:05:10;3.83;;;2.10;;
61344;SDS011;47216;42.656;23.232;2023-11-21T02:07:39;3.53;;;1.70;;
61344;SDS011;47216;42.656;23.232;2023-11-21T02:10:06;2.50;;;1.40;;
61344;SDS011;47216;42.656;23.232;2023-11-21T02:12:33;3.57;;;1.73;;
61344;SDS011;47216;42.656;23.232;2023-11-21T02:15:02;10.37;;;5.80;;
61344;SDS011;47216;42.656;23.232;2023-11-21T02:17:30;4.07;;;2.67;;
61344;SDS011;47216;42.656;23.232;2023-11-21T02:19:57;6.40;;;2.57;;
61344;SDS011;47216;42.656;23.232;2023-11-21T02:22:25;4.63;;;2.63;;
61344;SDS011;47216;42.656;23.232;2023-11-21T02:24:57;4.70;;;2.13;;
61344;SDS011;47216;42.656;23.232;2023-11-21T02:27:24;3.50;;;2.30;;
61344;SDS011;47216;42.656;23.232;2023-11-21T02:29:52;4.30;;;2.60;;
61344;SDS011;47216;42.656;23.232;2023-11-21T02:32:19;8.47;;;3.67;;
61344;SDS011;47216;42.656;23.232;2023-11-21T02:34:48;24.33;;;9.93;;
61344;SDS011;47216;42.656;23.232;2023-11-21T02:37:15;26.97;;;10.00;;
61344;SDS011;47216;42.656;23.232;2023-11-21T02:39:41;15.10;;;5.50;;
61344;SDS011;47216;42.656;23.232;2023-11-21T02:42:10;22.73;;;6.53;;
61344;SDS011;47216;42.656;23.232;2023-11-21T02:44:37;11.17;;;5.27;;
61344;SDS011;47216;42.656;23.232;2023-11-21T02:47:04;7.87;;;4.40;;
61344;SDS011;47216;42.656;23.232;2023-11-21T02:49:31;6.37;;;3.37;;
61344;SDS011;47216;42.656;23.232;2023-11-21T02:51:59;5.97;;;3.23;;
61344;SDS011;47216;42.656;23.232;2023-11-21T02:54:26;35.53;;;11.37;;
61344;SDS011;47216;42.656;23.232;2023-11-21T02:56:53;20.17;;;7.50;;
61344;SDS011;47216;42.656;23.232;2023-11-21T02:59:21;21.83;;;7.63;;
61344;SDS011;47216;42.656;23.232;2023-11-21T03:01:48;45.63;;;13.07;;
61344;SDS011;47216;42.656;23.232;2023-11-21T03:04:15;49.13;;;16.73;;
61344;SDS011;47216;42.656;23.232;2023-11-21T03:06:43;11.70;;;6.50;;
61344;SDS011;47216;42.656;23.232;2023-11-21T03:09:10;12.63;;;6.70;;
61344;SDS011;47216;42.656;23.232;2023-11-21T03:11:38;6.93;;;3.63;;
61344;SDS011;47216;42.656;23.232;2023-11-21T03:14:05;9.73;;;4.87;;
61344;SDS011;47216;42.656;23.232;2023-11-21T03:16:33;8.37;;;4.77;;
61344;SDS011;47216;42.656;23.232;2023-11-21T03:19:00;4.90;;;3.53;;
61344;SDS011;47216;42.656;23.232;2023-11-21T03:21:27;7.07;;;3.40;;
61344;SDS011;47216;42.656;23.232;2023-11-21T03:23:54;23.03;;;7.83;;
61344;SDS011;47216;42.656;23.232;2023-11-21T03:26:21;17.27;;;5.57;;
61344;SDS011;47216;42.656;23.232;2023-11-21T03:28:47;49.50;;;12.83;;
61344;SDS011;47216;42.656;23.232;2023-11-21T03:31:15;30.60;;;8.70;;
61344;SDS011;47216;42.656;23.232;2023-11-21T03:33:45;41.33;;;11.00;;
61344;SDS011;47216;42.656;23.232;2023-11-21T03:36:12;76.77;;;19.40;;
61344;SDS011;47216;42.656;23.232;2023-11-21T03:38:40;98.27;;;19.83;;
61344;SDS011;47216;42.656;23.232;2023-11-21T03:41:06;66.00;;;15.90;;
61344;SDS011;47216;42.656;23.232;2023-11-21T03:43:35;43.37;;;11.47;;
61344;SDS011;47216;42.656;23.232;2023-11-21T03:46:02;43.33;;;10.70;;
61344;SDS011;47216;42.656;23.232;2023-11-21T03:48:29;30.77;;;8.80;;
61344;SDS011;47216;42.656;23.232;2023-11-21T03:50:57;39.63;;;10.03;;
61344;SDS011;47216;42.656;23.232;2023-11-21T03:53:23;24.77;;;7.97;;
61344;SDS011;47216;42.656;23.232;2023-11-21T03:55:50;28.17;;;9.97;;
61344;SDS011;47216;42.656;23.232;2023-11-21T03:58:17;15.13;;;6.57;;
61344;SDS011;47216;42.656;23.232;2023-11-21T04:00:44;19.67;;;7.27;;
61344;SDS011;47216;42.656;23.232;2023-11-21T04:03:11;19.83;;;7.70;;
61344;SDS011;47216;42.656;23.232;2023-11-21T04:05:38;20.87;;;9.07;;
61344;SDS011;47216;42.656;23.232;2023-11-21T04:08:07;13.07;;;5.77;;
61344;SDS011;47216;42.656;23.232;2023-11-21T04:10:34;21.93;;;11.23;;
61344;SDS011;47216;42.656;23.232;2023-11-21T04:13:01;12.80;;;6.40;;
61344;SDS011;47216;42.656;23.232;2023-11-21T04:15:27;12.93;;;6.20;;
61344;SDS011;47216;42.656;23.232;2023-11-21T04:17:54;13.50;;;7.00;;
61344;SDS011;47216;42.656;23.232;2023-11-21T04:20:21;14.30;;;6.83;;
61344;SDS011;47216;42.656;23.232;2023-11-21T04:22:48;10.87;;;6.80;;
61344;SDS011;47216;42.656;23.232;2023-11-21T04:25:17;10.27;;;5.40;;
61344;SDS011;47216;42.656;23.232;2023-11-21T04:27:44;8.17;;;4.40;;
61344;SDS011;47216;42.656;23.232;2023-11-21T04:30:11;5.40;;;3.70;;
61344;SDS011;47216;42.656;23.232;2023-11-21T04:32:39;5.93;;;3.67;;
61344;SDS011;47216;42.656;23.232;2023-11-21T04:35:07;7.60;;;3.73;;
61344;SDS011;47216;42.656;23.232;2023-11-21T04:37:34;5.53;;;3.17;;
61344;SDS011;47216;42.656;23.232;2023-11-21T04:40:02;6.07;;;3.70;;
61344;SDS011;47216;42.656;23.232;2023-11-21T04:42:33;7.87;;;4.33;;
61344;SDS011;47216;42.656;23.232;2023-11-21T04:45:01;7.07;;;4.47;;
61344;SDS011;47216;42.656;23.232;2023-11-21T04:47:30;7.30;;;5.63;;
61344;SDS011;47216;42.656;23.232;2023-11-21T04:49:57;7.67;;;5.03;;
61344;SDS011;47216;42.656;23.232;2023-11-21T04:52:23;7.93;;;5.00;;
61344;SDS011;47216;42.656;23.232;2023-11-21T04:54:50;7.60;;;4.13;;
61344;SDS011;47216;42.656;23.232;2023-11-21T04:57:16;5.37;;;3.80;;
61344;SDS011;47216;42.656;23.232;2023-11-21T04:59:45;7.00;;;3.33;;
61344;SDS011;47216;42.656;23.232;2023-11-21T05:02:12;8.93;;;4.27;;
61344;SDS011;47216;42.656;23.232;2023-11-21T05:04:38;7.63;;;4.80;;
61344;SDS011;47216;42.656;23.232;2023-11-21T05:07:07;8.77;;;4.33;;
61344;SDS011;47216;42.656;23.232;2023-11-21T05:09:34;5.60;;;3.87;;
61344;SDS011;47216;42.656;23.232;2023-11-21T05:12:03;4.77;;;3.53;;
61344;SDS011;47216;42.656;23.232;2023-11-21T05:14:30;6.03;;;3.30;;
61344;SDS011;47216;42.656;23.232;2023-11-21T05:16:58;4.73;;;2.87;;
61344;SDS011;47216;42.656;23.232;2023-11-21T05:19:25;6.67;;;3.50;;
61344;SDS011;47216;42.656;23.232;2023-11-21T05:21:52;5.10;;;3.87;;
61344;SDS011;47216;42.656;23.232;2023-11-21T05:24:19;6.73;;;3.67;;
61344;SDS011;47216;42.656;23.232;2023-11-21T05:26:45;4.67;;;2.57;;
61344;SDS011;47216;42.656;23.232;2023-11-21T05:29:12;4.33;;;2.30;;
61344;SDS011;47216;42.656;23.232;2023-11-21T05:31:39;3.93;;;2.50;;
61344;SDS011;47216;42.656;23.232;2023-11-21T05:34:07;4.53;;;2.77;;
61344;SDS011;47216;42.656;23.232;2023-11-21T05:36:34;7.27;;;3.40;;
61344;SDS011;47216;42.656;23.232;2023-11-21T05:39:00;4.57;;;2.30;;
61344;SDS011;47216;42.656;23.232;2023-11-21T05:41:28;4.77;;;2.17;;
61344;SDS011;47216;42.656;23.232;2023-11-21T05:43:55;5.07;;;2.60;;
61344;SDS011;47216;42.656;23.232;2023-11-21T05:46:22;5.63;;;3.07;;
61344;SDS011;47216;42.656;23.232;2023-11-21T05:48:49;5.10;;;2.10;;
61344;SDS011;47216;42.656;23.232;2023-11-21T05:51:17;5.40;;;3.40;;
61344;SDS011;47216;42.656;23.232;2023-11-21T05:53:44;9.23;;;6.07;;
61344;SDS011;47216;42.656;23.232;2023-11-21T05:56:11;10.93;;;6.03;;
61344;SDS011;47216;42.656;23.232;2023-11-21T05:58:38;7.47;;;4.30;;
61344;SDS011;47216;42.656;23.232;2023-11-21T06:01:05;8.90;;;3.60;;
61344;SDS011;47216;42.656;23.232;2023-11-21T06:03:34;7.97;;;4.30;;
61344;SDS011;47216;42.656;23.232;2023-11-21T06:06:01;5.70;;;2.50;;
61344;SDS011;47216;42.656;23.232;2023-11-21T06:08:31;5.87;;;2.97;;
61344;SDS011;47216;42.656;23.232;2023-11-21T06:10:57;6.70;;;2.77;;
61344;SDS011;47216;42.656;23.232;2023-11-21T06:13:24;7.53;;;4.43;;
61344;SDS011;47216;42.656;23.232;2023-11-21T06:15:51;10.77;;;5.73;;
61344;SDS011;47216;42.656;23.232;2023-11-21T06:18:18;11.07;;;5.33;;
61344;SDS011;47216;42.656;23.232;2023-11-21T06:20:45;9.87;;;6.07;;
61344;SDS011;47216;42.656;23.232;2023-11-21T06:23:12;12.23;;;6.73;;
61344;SDS011;47216;42.656;23.232;2023-11-21T06:25:40;14.50;;;7.90;;
61344;SDS011;47216;42.656;23.232;2023-11-21T06:28:07;11.53;;;7.07;;
61344;SDS011;47216;42.656;23.232;2023-11-21T06:30:34;12.43;;;7.17;;
61344;SDS011;47216;42.656;23.232;2023-11-21T06:33:00;12.13;;;7.90;;
61344;SDS011;47216;42.656;23.232;2023-11-21T06:35:27;15.67;;;9.17;;
61344;SDS011;47216;42.656;23.232;2023-11-21T06:37:55;18.10;;;10.10;;
61344;SDS011;47216;42.656;23.232;2023-11-21T06:40:22;18.70;;;9.27;;
61344;SDS011;47216;42.656;23.232;2023-11-21T06:42:51;21.13;;;10.47;;
61344;SDS011;47216;42.656;23.232;2023-11-21T06:45:18;19.47;;;11.13;;
61344;SDS011;47216;42.656;23.232;2023-11-21T06:47:46;21.23;;;11.30;;
61344;SDS011;47216;42.656;23.232;2023-11-21T06:50:13;23.47;;;12.27;;
61344;SDS011;47216;42.656;23.232;2023-11-21T06:52:40;38.33;;;17.00;;
61344;SDS011;47216;42.656;23.232;2023-11-21T06:55:08;58.83;;;28.53;;
61344;SDS011;47216;42.656;23.232;2023-11-21T06:57:37;56.10;;;26.43;;
61344;SDS011;47216;42.656;23.232;2023-11-21T07:00:06;38.17;;;17.97;;
61344;SDS011;47216;42.656;23.232;2023-11-21T07:02:34;20.73;;;10.70;;
61344;SDS011;47216;42.656;23.232;2023-11-21T07:05:01;19.10;;;10.53;;
61344;SDS011;47216;42.656;23.232;2023-11-21T07:07:28;18.10;;;9.63;;
61344;SDS011;47216;42.656;23.232;2023-11-21T07:09:55;21.40;;;9.60;;
61344;SDS011;47216;42.656;23.232;2023-11-21T07:12:22;17.77;;;9.50;;
61344;SDS011;47216;42.656;23.232;2023-11-21T07:14:50;19.90;;;9.63;;
61344;SDS011;47216;42.656;23.232;2023-11-21T07:17:20;14.13;;;8.87;;
61344;SDS011;47216;42.656;23.232;2023-11-21T07:19:48;15.60;;;8.93;;
61344;SDS011;47216;42.656;23.232;2023-11-21T07:22:15;16.47;;;9.70;;
61344;SDS011;47216;42.656;23.232;2023-11-21T07:24:47;14.77;;;9.07;;
61344;SDS011;47216;42.656;23.232;2023-11-21T07:27:14;14.63;;;9.33;;
61344;SDS011;47216;42.656;23.232;2023-11-21T07:29:41;14.37;;;9.37;;
61344;SDS011;47216;42.656;23.232;2023-11-21T07:32:08;15.87;;;9.00;;
61344;SDS011;47216;42.656;23.232;2023-11-21T07:34:36;16.83;;;10.10;;
61344;SDS011;47216;42.656;23.232;2023-11-21T07:37:03;20.23;;;9.80;;
61344;SDS011;47216;42.656;23.232;2023-11-21T07:39:30;18.00;;;11.07;;
61344;SDS011;47216;42.656;23.232;2023-11-21T07:41:57;20.73;;;11.23;;
61344;SDS011;47216;42.656;23.232;2023-11-21T07:44:23;22.00;;;12.00;;
61344;SDS011;47216;42.656;23.232;2023-11-21T07:46:51;31.13;;;15.47;;
61344;SDS011;47216;42.656;23.232;2023-11-21T07:49:22;27.57;;;14.10;;
61344;SDS011;47216;42.656;23.232;2023-11-21T07:51:50;29.50;;;14.00;;
61344;SDS011;47216;42.656;23.232;2023-11-21T07:54:17;24.17;;;13.03;;
61344;SDS011;47216;42.656;23.232;2023-11-21T07:56:44;20.20;;;12.43;;
61344;SDS011;47216;42.656;23.232;2023-11-21T07:59:11;20.03;;;12.73;;
61344;SDS011;47216;42.656;23.232;2023-11-21T08:01:39;22.67;;;13.10;;
61344;SDS011;47216;42.656;23.232;2023-11-21T08:04:08;23.80;;;13.20;;
61344;SDS011;47216;42.656;23.232;2023-11-21T08:06:35;22.93;;;12.83;;
61344;SDS011;47216;42.656;23.232;2023-11-21T08:09:03;23.33;;;12.43;;
61344;SDS011;47216;42.656;23.232;2023-11-21T08:11:30;20.30;;;12.10;;
61344;SDS011;47216;42.656;23.232;2023-11-21T08:13:58;24.03;;;12.07;;
61344;SDS011;47216;42.656;23.232;2023-11-21T08:16:25;19.60;;;11.73;;
61344;SDS011;47216;42.656;23.232;2023-11-21T08:18:52;18.43;;;11.77;;
61344;SDS011;47216;42.656;23.232;2023-11-21T08:21:19;23.63;;;13.07;;
61344;SDS011;47216;42.656;23.232;2023-11-21T08:23:46;27.20;;;13.50;;
61344;SDS011;47216;42.656;23.232;2023-11-21T08:26:20;22.23;;;12.90;;
61344;SDS011;47216;42.656;23.232;2023-11-21T08:28:47;21.00;;;11.70;;
61344;SDS011;47216;42.656;23.232;2023-11-21T08:31:13;23.97;;;12.07;;
61344;SDS011;47216;42.656;23.232;2023-11-21T08:33:41;26.90;;;12.60;;
61344;SDS011;47216;42.656;23.232;2023-11-21T08:36:08;23.40;;;12.13;;
61344;SDS011;47216;42.656;23.232;2023-11-21T08:38:36;16.17;;;11.00;;
61344;SDS011;47216;42.656;23.232;2023-11-21T08:41:04;17.17;;;11.43;;
61344;SDS011;47216;42.656;23.232;2023-11-21T08:43:34;23.80;;;13.37;;
61344;SDS011;47216;42.656;23.232;2023-11-21T08:46:01;20.03;;;13.77;;
61344;SDS011;47216;42.656;23.232;2023-11-21T08:48:28;21.43;;;11.27;;
61344;SDS011;47216;42.656;23.232;2023-11-21T08:50:55;25.10;;;15.10;;
61344;SDS011;47216;42.656;23.232;2023-11-21T08:53:21;22.77;;;13.23;;
61344;SDS011;47216;42.656;23.232;2023-11-21T08:55:48;20.27;;;13.07;;
61344;SDS011;47216;42.656;23.232;2023-11-21T08:58:18;21.43;;;13.33;;
61344;SDS011;47216;42.656;23.232;2023-11-21T09:00:48;27.97;;;13.83;;
61344;SDS011;47216;42.656;23.232;2023-11-21T09:03:14;20.47;;;12.93;;
61344;SDS011;47216;42.656;23.232;2023-11-21T09:05:41;25.20;;;13.40;;
61344;SDS011;47216;42.656;23.232;2023-11-21T09:08:09;24.87;;;12.33;;
61344;SDS011;47216;42.656;23.232;2023-11-21T09:10:36;24.10;;;12.63;;
61344;SDS011;47216;42.656;23.232;2023-11-21T09:13:04;24.67;;;13.63;;
61344;SDS011;47216;42.656;23.232;2023-11-21T09:15:35;19.13;;;12.47;;
61344;SDS011;47216;42.656;23.232;2023-11-21T09:18:03;25.73;;;14.13;;
61344;SDS011;47216;42.656;23.232;2023-11-21T09:20:30;26.87;;;14.07;;
61344;SDS011;47216;42.656;23.232;2023-11-21T09:22:57;19.67;;;12.60;;
61344;SDS011;47216;42.656;23.232;2023-11-21T09:25:24;21.30;;;13.37;;
61344;SDS011;47216;42.656;23.232;2023-11-21T09:27:50;18.77;;;13.00;;
61344;SDS011;47216;42.656;23.232;2023-11-21T09:30:17;23.03;;;14.10;;
61344;SDS011;47216;42.656;23.232;2023-11-21T09:32:45;30.03;;;14.40;;
61344;SDS011;47216;42.656;23.232;2023-11-21T09:35:13;29.07;;;13.80;;
61344;SDS011;47216;42.656;23.232;2023-11-21T09:37:41;21.87;;;13.93;;
61344;SDS011;47216;42.656;23.232;2023-11-21T09:40:09;23.47;;;14.47;;
61344;SDS011;47216;42.656;23.232;2023-11-21T09:42:39;25.50;;;14.70;;
61344;SDS011;47216;42.656;23.232;2023-11-21T09:45:14;28.03;;;15.43;;
61344;SDS011;47216;42.656;23.232;2023-11-21T09:47:45;28.83;;;13.83;;
61344;SDS011;47216;42.656;23.232;2023-11-21T09:50:15;23.60;;;13.80;;
61344;SDS011;47216;42.656;23.232;2023-11-21T09:52:45;26.73;;;14.33;;
61344;SDS011;47216;42.656;23.232;2023-11-21T09:55:32;27.70;;;14.30;;
61344;SDS011;47216;42.656;23.232;2023-11-21T09:58:02;28.07;;;15.00;;
61344;SDS011;47216;42.656;23.232;2023-11-21T10:00:30;26.80;;;15.37;;
61344;SDS011;47216;42.656;23.232;2023-11-21T10:02:58;23.77;;;14.40;;
61344;SDS011;47216;42.656;23.232;2023-11-21T10:05:26;22.63;;;13.73;;
61344;SDS011;47216;42.656;23.232;2023-11-21T10:07:53;22.40;;;13.20;;
61344;SDS011;47216;42.656;23.232;2023-11-21T10:10:23;24.90;;;13.63;;
61344;SDS011;47216;42.656;23.232;2023-11-21T10:12:53;22.53;;;13.07;;
61344;SDS011;47216;42.656;23.232;2023-11-21T10:15:23;22.33;;;12.57;;
61344;SDS011;47216;42.656;23.232;2023-11-21T10:17:51;24.30;;;12.00;;
61344;SDS011;47216;42.656;23.232;2023-11-21T10:20:19;18.97;;;11.63;;
61344;SDS011;47216;42.656;23.232;2023-11-21T10:22:47;21.90;;;10.10;;
61344;SDS011;47216;42.656;23.232;2023-11-21T10:25:14;18.10;;;11.37;;
61344;SDS011;47216;42.656;23.232;2023-11-21T10:27:43;20.00;;;10.77;;
61344;SDS011;47216;42.656;23.232;2023-11-21T10:30:15;21.97;;;10.63;;
61344;SDS011;47216;42.656;23.232;2023-11-21T10:32:43;15.63;;;10.27;;
61344;SDS011;47216;42.656;23.232;2023-11-21T10:35:10;20.67;;;8.83;;
61344;SDS011;47216;42.656;23.232;2023-11-21T10:37:37;17.27;;;8.10;;
61344;SDS011;47216;42.656;23.232;2023-11-21T10:40:07;14.60;;;6.93;;
61344;SDS011;47216;42.656;23.232;2023-11-21T10:42:37;15.70;;;7.37;;
61344;SDS011;47216;42.656;23.232;2023-11-21T10:45:04;15.17;;;7.23;;
61344;SDS011;47216;42.656;23.232;2023-11-21T10:47:37;25.43;;;8.37;;
61344;SDS011;47216;42.656;23.232;2023-11-21T10:50:05;12.30;;;7.23;;
61344;SDS011;47216;42.656;23.232;2023-11-21T10:52:36;12.13;;;7.83;;
61344;SDS011;47216;42.656;23.232;2023-11-21T10:55:11;14.67;;;7.93;;
61344;SDS011;47216;42.656;23.232;2023-11-21T10:57:42;13.43;;;8.07;;
61344;SDS011;47216;42.656;23.232;2023-11-21T11:00:14;12.80;;;8.07;;
61344;SDS011;47216;42.656;23.232;2023-11-21T11:02:56;12.77;;;7.57;;
61344;SDS011;47216;42.656;23.232;2023-11-21T11:05:42;23.67;;;8.87;;
61344;SDS011;47216;42.656;23.232;2023-11-21T11:08:20;13.40;;;8.63;;
61344;SDS011;47216;42.656;23.232;2023-11-21T11:11:06;14.97;;;8.23;;
61344;SDS011;47216;42.656;23.232;2023-11-21T11:13:35;21.00;;;9.83;;
61344;SDS011;47216;42.656;23.232;2023-11-21T11:16:04;19.53;;;9.87;;
61344;SDS011;47216;42.656;23.232;2023-11-21T11:18:38;21.67;;;10.53;;
61344;SDS011;47216;42.656;23.232;2023-11-21T11:21:11;17.67;;;10.03;;
61344;SDS011;47216;42.656;23.232;2023-11-21T11:24:00;16.77;;;10.50;;
61344;SDS011;47216;42.656;23.232;2023-11-21T11:26:54;21.70;;;10.90;;
61344;SDS011;47216;42.656;23.232;2023-11-21T11:29:39;19.90;;;11.50;;
61344;SDS011;47216;42.656;23.232;2023-11-21T11:32:17;18.30;;;10.67;;
61344;SDS011;47216;42.656;23.232;2023-11-21T11:35:04;24.60;;;10.93;;
61344;SDS011;47216;42.656;23.232;2023-11-21T11:37:36;18.43;;;10.13;;
61344;SDS011;47216;42.656;23.232;2023-11-21T11:40:06;23.77;;;11.03;;
61344;SDS011;47216;42.656;23.232;2023-11-21T11:42:35;18.47;;;10.27;;
61344;SDS011;47216;42.656;23.232;2023-11-21T11:45:02;15.27;;;10.40;;
61344;SDS011;47216;42.656;23.232;2023-11-21T11:47:45;17.40;;;10.27;;
61344;SDS011;47216;42.656;23.232;2023-11-21T11:50:14;19.20;;;9.90;;
61344;SDS011;47216;42.656;23.232;2023-11-21T11:52:42;15.17;;;10.23;;
61344;SDS011;47216;42.656;23.232;2023-11-21T11:55:10;24.43;;;10.73;;
61344;SDS011;47216;42.656;23.232;2023-11-21T11:57:40;13.90;;;9.67;;
61344;SDS011;47216;42.656;23.232;2023-11-21T12:00:15;15.67;;;10.03;;
61344;SDS011;47216;42.656;23.232;2023-11-21T12:02:45;26.53;;;12.63;;
61344;SDS011;47216;42.656;23.232;2023-11-21T12:05:13;17.87;;;10.00;;
61344;SDS011;47216;42.656;23.232;2023-11-21T12:07:44;22.50;;;10.63;;
61344;SDS011;47216;42.656;23.232;2023-11-21T12:10:13;18.73;;;10.87;;
61344;SDS011;47216;42.656;23.232;2023-11-21T12:12:44;23.20;;;12.20;;
61344;SDS011;47216;42.656;23.232;2023-11-21T12:15:12;18.93;;;11.40;;
61344;SDS011;47216;42.656;23.232;2023-11-21T12:17:39;24.00;;;12.90;;
61344;SDS011;47216;42.656;23.232;2023-11-21T12:20:07;22.57;;;13.20;;
61344;SDS011;47216;42.656;23.232;2023-11-21T12:22:41;20.87;;;13.37;;
61344;SDS011;47216;42.656;23.232;2023-11-21T12:25:09;20.17;;;13.77;;
61344;SDS011;47216;42.656;23.232;2023-11-21T12:27:41;23.97;;;14.47;;
61344;SDS011;47216;42.656;23.232;2023-11-21T12:30:14;23.77;;;14.87;;
61344;SDS011;47216;42.656;23.232;2023-11-21T12:32:43;25.50;;;15.03;;
61344;SDS011;47216;42.656;23.232;2023-11-21T12:35:12;29.53;;;15.93;;
61344;SDS011;47216;42.656;23.232;2023-11-21T12:37:39;26.97;;;16.60;;
61344;SDS011;47216;42.656;23.232;2023-11-21T12:40:08;30.70;;;18.43;;
61344;SDS011;47216;42.656;23.232;2023-11-21T12:42:37;32.63;;;19.67;;
61344;SDS011;47216;42.656;23.232;2023-11-21T12:45:10;28.97;;;16.77;;
61344;SDS011;47216;42.656;23.232;2023-11-21T12:47:46;26.33;;;15.90;;
61344;SDS011;47216;42.656;23.232;2023-11-21T12:50:14;30.37;;;17.37;;
61344;SDS011;47216;42.656;23.232;2023-11-21T12:52:44;32.87;;;19.10;;
61344;SDS011;47216;42.656;23.232;2023-11-21T12:55:13;25.57;;;16.83;;
61344;SDS011;47216;42.656;23.232;2023-11-21T12:57:42;24.30;;;15.43;;
61344;SDS011;47216;42.656;23.232;2023-11-21T13:00:12;25.93;;;15.37;;
61344;SDS011;47216;42.656;23.232;2023-11-21T13:02:52;23.07;;;14.43;;
61344;SDS011;47216;42.656;23.232;2023-11-21T13:05:26;20.30;;;13.00;;
61344;SDS011;47216;42.656;23.232;2023-11-21T13:07:54;23.67;;;14.70;;
61344;SDS011;47216;42.656;23.232;2023-11-21T13:10:23;21.87;;;13.43;;
61344;SDS011;47216;42.656;23.232;2023-11-21T13:12:52;23.97;;;13.53;;
61344;SDS011;47216;42.656;23.232;2023-11-21T13:15:21;24.73;;;13.97;;
61344;SDS011;47216;42.656;23.232;2023-11-21T13:17:48;23.67;;;14.57;;
61344;SDS011;47216;42.656;23.232;2023-11-21T13:20:16;43.17;;;21.97;;
61344;SDS011;47216;42.656;23.232;2023-11-21T13:22:48;58.30;;;26.93;;
61344;SDS011;47216;42.656;23.232;2023-11-21T13:25:17;49.03;;;24.93;;
61344;SDS011;47216;42.656;23.232;2023-11-21T13:27:44;55.10;;;28.93;;
61344;SDS011;47216;42.656;23.232;2023-11-21T13:30:12;37.43;;;22.37;;
61344;SDS011;47216;42.656;23.232;2023-11-21T13:32:45;27.07;;;16.03;;
61344;SDS011;47216;42.656;23.232;2023-11-21T13:35:14;28.57;;;15.83;;
61344;SDS011;47216;42.656;23.232;2023-11-21T13:37:48;29.60;;;15.50;;
61344;SDS011;47216;42.656;23.232;2023-11-21T13:40:20;26.53;;;16.37;;
61344;SDS011;47216;42.656;23.232;2023-11-21T13:42:51;28.03;;;16.70;;
61344;SDS011;47216;42.656;23.232;2023-11-21T13:45:35;29.73;;;17.87;;
61344;SDS011;47216;42.656;23.232;2023-11-21T13:48:14;27.70;;;17.00;;
61344;SDS011;47216;42.656;23.232;2023-11-21T13:50:52;28.37;;;17.10;;
61344;SDS011;47216;42.656;23.232;2023-11-21T13:53:26;32.17;;;16.87;;
61344;SDS011;47216;42.656;23.232;2023-11-21T13:56:05;28.90;;;16.33;;
61344;SDS011;47216;42.656;23.232;2023-11-21T13:58:43;26.40;;;15.70;;
61344;SDS011;47216;42.656;23.232;2023-11-21T14:01:13;26.77;;;16.20;;
61344;SDS011;47216;42.656;23.232;2023-11-21T14:04:06;28.93;;;16.60;;
61344;SDS011;47216;42.656;23.232;2023-11-21T14:06:44;25.00;;;15.70;;
61344;SDS011;47216;42.656;23.232;2023-11-21T14:09:13;56.57;;;25.37;;
61344;SDS011;47216;42.656;23.232;2023-11-21T14:11:47;35.03;;;19.37;;
61344;SDS011;47216;42.656;23.232;2023-11-21T14:14:16;26.80;;;15.80;;
61344;SDS011;47216;42.656;23.232;2023-11-21T14:16:43;26.73;;;14.50;;
61344;SDS011;47216;42.656;23.232;2023-11-21T14:19:12;24.80;;;15.03;;
61344;SDS011;47216;42.656;23.232;2023-11-21T14:21:42;30.50;;;16.33;;
61344;SDS011;47216;42.656;23.232;2023-11-21T14:24:09;32.70;;;17.63;;
61344;SDS011;47216;42.656;23.232;2023-11-21T14:26:38;29.03;;;17.03;;
61344;SDS011;47216;42.656;23.232;2023-11-21T14:29:06;26.90;;;15.07;;